Time;durP1;ratioP1;P1;durP2;ratioP2;P2;SDS_P1;SDS_P2;PMS_P1;PMS_P2;Temp;Humidity;BMP_temperature;BMP_pressure;BME280_temperature;BME280_humidity;BME280_pressure;Samples;Min_cycle;Max_cycle;Signal;HPM_P1;HPM_P2
2022/06/07 00:38:48;;;;;;;6.18;4.45;;;26.50;62.30;;;;;;6236230;23;20012;-76
2022/06/07 00:41:14;;;;;;;6.18;3.85;;;26.50;62.30;;;;;;6235037;23;20772;-77
2022/06/07 00:44:01;;;;;;;4.90;2.92;;;26.40;62.30;;;;;;6234941;23;20004;-78
2022/06/07 00:46:27;;;;;;;6.55;2.50;;;26.50;62.50;;;;;;6235952;23;20075;-77
2022/06/07 00:48:53;;;;;;;4.95;2.60;;;26.40;62.50;;;;;;6236411;23;20032;-78
2022/06/07 00:51:19;;;;;;;7.95;2.35;;;26.40;62.50;;;;;;6237824;23;20004;-77
2022/06/07 00:53:45;;;;;;;5.38;2.60;;;26.40;62.20;;;;;;6236047;23;20015;-78
2022/06/07 00:56:11;;;;;;;4.25;2.67;;;26.50;62.00;;;;;;6235169;23;20032;-78
2022/06/07 00:58:36;;;;;;;6.47;3.60;;;26.50;61.90;;;;;;6208143;23;20004;-78
2022/06/07 01:01:02;;;;;;;4.28;2.78;;;26.50;61.80;;;;;;6210820;23;20034;-79
2022/06/07 01:03:28;;;;;;;5.13;3.10;;;26.40;62.00;;;;;;6235040;23;20091;-78
2022/06/07 01:05:54;;;;;;;6.18;2.75;;;26.30;62.30;;;;;;6210873;23;20327;-78
2022/06/07 01:11:06;;;;;;;5.00;2.38;;;26.20;62.90;;;;;;6237517;23;20032;-78
2022/06/07 01:13:35;;;;;;;3.65;2.63;;;26.20;62.90;;;;;;6235357;22;20012;-78
2022/06/07 01:16:06;;;;;;;5.82;3.35;;;26.20;62.90;;;;;;6236471;23;20398;-78
2022/06/07 01:18:32;;;;;;;4.72;2.63;;;26.20;63.20;;;;;;6236774;23;20130;-78
2022/06/07 01:21:35;;;;;;;4.72;2.80;;;26.20;63.30;;;;;;6236303;23;20027;-79
2022/06/07 01:24:02;;;;;;;4.28;3.15;;;26.10;64.40;;;;;;6238482;23;20008;-79
2022/06/07 01:26:27;;;;;;;5.80;3.10;;;26.10;64.30;;;;;;6236421;23;20011;-79
2022/06/07 01:28:53;;;;;;;4.20;2.47;;;26.10;64.40;;;;;;6210563;23;20008;-79
2022/06/07 01:31:19;;;;;;;4.00;2.70;;;26.10;64.60;;;;;;6236021;23;20424;-79
2022/06/07 01:33:45;;;;;;;3.40;2.60;;;26.00;64.80;;;;;;6238598;23;20099;-78
2022/06/07 01:36:14;;;;;;;4.90;2.45;;;26.10;65.40;;;;;;6235684;23;20031;-78
2022/06/07 01:38:42;;;;;;;5.75;2.78;;;26.00;65.60;;;;;;6239344;23;20004;-78
2022/06/07 01:43:54;;;;;;;5.43;2.50;;;26.00;66.10;;;;;;6236018;23;20018;-77
2022/06/07 01:46:20;;;;;;;3.85;2.60;;;26.10;66.70;;;;;;6236325;23;20154;-77
2022/06/07 01:48:46;;;;;;;4.35;2.85;;;26.00;67.00;;;;;;6237401;23;20004;-76
2022/06/07 01:51:12;;;;;;;5.10;2.63;;;26.00;67.20;;;;;;6237901;23;20011;-76
2022/06/07 01:53:38;;;;;;;5.35;2.75;;;26.10;67.60;;;;;;6238305;23;20550;-76
2022/06/07 01:56:06;;;;;;;5.60;3.00;;;26.00;67.70;;;;;;6235764;23;20016;-79
2022/06/07 01:58:32;;;;;;;9.80;3.65;;;26.00;68.40;;;;;;6210204;23;20016;-78
2022/06/07 02:00:58;;;;;;;5.63;3.28;;;26.00;68.70;;;;;;6235775;23;20492;-78
2022/06/07 02:03:23;;;;;;;3.95;3.00;;;25.90;69.00;;;;;;6235511;23;20047;-78
2022/06/07 02:05:58;;;;;;;5.30;2.78;;;25.90;69.30;;;;;;6209095;23;20009;-78
2022/06/07 02:08:24;;;;;;;4.32;3.08;;;25.80;69.50;;;;;;6238093;23;20004;-77
2022/06/07 02:10:50;;;;;;;5.38;3.17;;;25.80;69.30;;;;;;6236959;23;20520;-77
2022/06/07 02:13:16;;;;;;;4.63;2.78;;;25.80;70.30;;;;;;6237696;22;20016;-76
2022/06/07 02:15:42;;;;;;;4.05;2.78;;;25.80;69.80;;;;;;6236793;23;20004;-77
2022/06/07 02:18:08;;;;;;;3.70;2.63;;;25.80;69.90;;;;;;6236532;23;20004;-77
2022/06/07 02:20:34;;;;;;;4.13;2.90;;;25.80;69.90;;;;;;6234990;23;20004;-76
2022/06/07 02:22:59;;;;;;;9.93;3.83;;;25.80;69.80;;;;;;6235904;23;20876;-76
2022/06/07 02:25:26;;;;;;;5.28;3.22;;;25.70;69.00;;;;;;6236317;23;20004;-77
2022/06/07 02:27:53;;;;;;;7.25;3.60;;;25.70;68.60;;;;;;6234382;23;20008;-76
2022/06/07 02:30:19;;;;;;;6.40;3.83;;;25.60;68.00;;;;;;6235019;23;20099;-78
2022/06/07 02:32:45;;;;;;;5.07;3.60;;;25.60;67.70;;;;;;6234055;23;20638;-79
2022/06/07 02:35:11;;;;;;;4.70;3.60;;;25.60;67.80;;;;;;6236737;23;20435;-79
2022/06/07 02:37:38;;;;;;;4.70;3.80;;;25.50;67.80;;;;;;6235990;23;20000;-79
2022/06/07 02:40:06;;;;;;;5.45;3.80;;;25.50;68.10;;;;;;6236017;23;20000;-77
2022/06/07 02:42:31;;;;;;;5.25;3.28;;;25.40;68.50;;;;;;6234942;23;20007;-77
2022/06/07 02:44:58;;;;;;;4.45;3.67;;;25.30;68.60;;;;;;6235577;23;19999;-77
2022/06/07 02:47:24;;;;;;;5.18;3.80;;;25.30;68.90;;;;;;6235280;23;20009;-77
2022/06/07 02:49:52;;;;;;;6.70;3.97;;;25.30;69.10;;;;;;6236782;23;20008;-78
2022/06/07 02:52:18;;;;;;;6.28;4.05;;;25.30;69.40;;;;;;6235894;23;20008;-77
2022/06/07 02:54:44;;;;;;;7.57;4.32;;;25.20;69.20;;;;;;6237350;23;20011;-77
2022/06/07 02:57:10;;;;;;;6.18;3.97;;;25.20;69.50;;;;;;6210079;23;20095;-77
2022/06/07 02:59:36;;;;;;;5.85;3.78;;;25.20;69.80;;;;;;6240738;23;20000;-77
2022/06/07 03:02:03;;;;;;;5.57;4.15;;;25.10;69.90;;;;;;6238378;23;20011;-77
2022/06/07 03:04:28;;;;;;;5.75;4.00;;;25.10;70.00;;;;;;6237863;23;20000;-77
2022/06/07 03:06:54;;;;;;;4.88;3.75;;;25.20;70.30;;;;;;6236991;23;20011;-77
2022/06/07 03:09:20;;;;;;;6.60;4.30;;;25.10;70.70;;;;;;6236391;23;20457;-78
2022/06/07 03:11:46;;;;;;;7.05;4.35;;;25.10;70.60;;;;;;6238293;23;20000;-78
2022/06/07 03:14:12;;;;;;;8.18;4.60;;;25.10;71.20;;;;;;6238294;22;20016;-78
2022/06/07 03:16:38;;;;;;;6.57;4.03;;;25.00;71.90;;;;;;6237702;23;20083;-79
2022/06/07 03:19:04;;;;;;;6.43;4.63;;;24.90;72.20;;;;;;6235926;23;20008;-80
2022/06/07 03:21:29;;;;;;;5.88;5.25;;;24.90;72.20;;;;;;6235735;23;20031;-79
2022/06/07 03:23:55;;;;;;;5.25;4.72;;;24.90;73.20;;;;;;6236167;23;20004;-80
2022/06/07 03:26:21;;;;;;;7.18;4.97;;;24.90;73.00;;;;;;6238559;23;20442;-81
2022/06/07 03:28:47;;;;;;;7.45;4.75;;;24.90;72.80;;;;;;6238794;23;20011;-81
2022/06/07 03:31:15;;;;;;;8.13;5.68;;;24.90;72.90;;;;;;6236470;23;20004;-81
2022/06/07 03:33:42;;;;;;;9.75;5.05;;;25.00;74.00;;;;;;6237725;23;20079;-80
2022/06/07 03:36:16;;;;;;;6.72;4.63;;;25.00;73.40;;;;;;6238860;23;20446;-79
2022/06/07 03:38:42;;;;;;;7.25;5.32;;;25.00;73.30;;;;;;6236233;23;20318;-78
2022/06/07 03:41:08;;;;;;;6.78;5.68;;;25.00;73.40;;;;;;6235890;23;20007;-79
2022/06/07 03:43:35;;;;;;;5.20;4.35;;;25.00;74.50;;;;;;6210314;23;20315;-78
2022/06/07 03:46:12;;;;;;;7.40;4.75;;;25.00;73.80;;;;;;6236779;23;20015;-78
2022/06/07 03:48:39;;;;;;;9.13;5.38;;;25.00;74.20;;;;;;6236485;23;20079;-76
2022/06/07 03:51:06;;;;;;;6.50;4.75;;;25.00;74.10;;;;;;6236582;23;20004;-76
2022/06/07 03:53:32;;;;;;;5.65;4.47;;;25.00;74.10;;;;;;6237621;23;20008;-78
2022/06/07 03:55:58;;;;;;;8.48;5.20;;;25.00;74.40;;;;;;6237547;23;20004;-80
2022/06/07 03:58:24;;;;;;;5.93;4.40;;;25.00;75.30;;;;;;6238288;23;20413;-80
2022/06/07 04:00:50;;;;;;;6.45;4.18;;;24.90;74.80;;;;;;6238242;23;20000;-79
2022/06/07 04:03:16;;;;;;;6.88;4.97;;;24.90;74.60;;;;;;6210675;23;20406;-79
2022/06/07 04:05:43;;;;;;;6.38;5.55;;;24.80;75.10;;;;;;6237725;23;20007;-79
2022/06/07 04:08:11;;;;;;;7.03;4.55;;;24.80;75.20;;;;;;6211214;23;20431;-79
2022/06/07 04:10:50;;;;;;;6.72;5.05;;;24.80;74.90;;;;;;6236260;23;20008;-77
2022/06/07 04:13:17;;;;;;;5.40;3.90;;;24.80;75.00;;;;;;6237516;22;20801;-78
2022/06/07 04:15:42;;;;;;;5.00;4.38;;;24.70;74.50;;;;;;6241153;23;20001;-78
2022/06/07 04:18:09;;;;;;;5.43;4.82;;;24.70;74.40;;;;;;6236967;23;20074;-78
2022/06/07 04:20:36;;;;;;;4.47;3.97;;;24.70;74.80;;;;;;6236521;23;20036;-78
2022/06/07 04:23:02;;;;;;;6.30;3.95;;;24.70;74.30;;;;;;6209702;23;20001;-78
2022/06/07 04:25:29;;;;;;;5.30;4.18;;;24.70;74.10;;;;;;6237636;23;20036;-78
2022/06/07 04:27:55;;;;;;;7.32;4.03;;;24.80;74.20;;;;;;6237385;23;20470;-77
2022/06/07 04:30:20;;;;;;;5.82;4.55;;;24.70;74.20;;;;;;6236762;23;20087;-77
2022/06/07 04:32:47;;;;;;;7.55;4.75;;;24.70;74.20;;;;;;6237222;23;20312;-77
2022/06/07 04:35:18;;;;;;;4.30;3.75;;;24.60;73.90;;;;;;6211725;23;20008;-77
2022/06/07 04:37:49;;;;;;;4.82;3.50;;;24.60;74.00;;;;;;6239029;23;20004;-77
2022/06/07 04:40:17;;;;;;;6.65;3.75;;;24.60;73.90;;;;;;6240589;23;20004;-77
2022/06/07 04:42:45;;;;;;;5.03;3.60;;;24.60;73.80;;;;;;6241772;23;20446;-77
2022/06/07 04:45:15;;;;;;;4.97;3.50;;;24.70;73.60;;;;;;6238968;23;20008;-77
2022/06/07 04:47:43;;;;;;;6.47;3.30;;;24.70;73.20;;;;;;6239385;23;19996;-77
2022/06/07 04:50:11;;;;;;;4.07;2.80;;;24.80;73.10;;;;;;6237703;23;20797;-77
2022/06/07 04:52:37;;;;;;;3.75;2.88;;;24.80;72.80;;;;;;6238672;23;20465;-77
2022/06/07 04:55:03;;;;;;;4.45;2.60;;;24.90;72.60;;;;;;6213057;23;20075;-77
2022/06/07 04:57:30;;;;;;;6.15;2.55;;;24.90;72.40;;;;;;6238880;23;20095;-78
2022/06/07 04:59:55;;;;;;;4.75;2.72;;;25.00;72.40;;;;;;6236970;23;20000;-79
2022/06/07 05:02:22;;;;;;;2.67;2.05;;;25.00;71.80;;;;;;6237223;23;20335;-80
2022/06/07 05:04:48;;;;;;;3.85;2.72;;;25.00;71.50;;;;;;6236957;23;20034;-80
2022/06/07 05:07:14;;;;;;;4.20;2.80;;;25.10;71.30;;;;;;6236894;23;20470;-81
2022/06/07 05:09:40;;;;;;;5.07;2.67;;;25.10;70.90;;;;;;6236405;23;20008;-79
2022/06/07 05:12:08;;;;;;;3.70;2.22;;;25.20;70.20;;;;;;6238514;22;20004;-78
2022/06/07 05:14:34;;;;;;;4.50;2.30;;;25.20;70.10;;;;;;6239677;23;20038;-78
2022/06/07 05:17:00;;;;;;;3.33;2.00;;;25.30;70.20;;;;;;6236268;23;20004;-79
2022/06/07 05:19:29;;;;;;;4.65;2.47;;;25.30;69.90;;;;;;6237292;23;20050;-78
2022/06/07 05:21:55;;;;;;;4.45;2.58;;;25.40;70.00;;;;;;6238608;23;20012;-78
2022/06/07 05:24:21;;;;;;;3.30;2.28;;;25.50;69.80;;;;;;6210278;23;20008;-79
2022/06/07 05:26:53;;;;;;;3.25;2.00;;;25.50;68.90;;;;;;6209361;23;20143;-78
2022/06/07 05:29:25;;;;;;;3.40;2.33;;;25.50;68.60;;;;;;6236450;23;20004;-78
2022/06/07 05:31:51;;;;;;;4.13;2.38;;;25.50;68.60;;;;;;6239139;23;20008;-78
2022/06/07 05:34:16;;;;;;;3.10;2.00;;;25.60;68.60;;;;;;6211401;23;20741;-78
2022/06/07 05:37:16;;;;;;;4.00;1.90;;;25.60;68.70;;;;;;6237424;23;20327;-78
2022/06/07 05:39:44;;;;;;;3.80;1.80;;;25.80;68.70;;;;;;6210640;23;20004;-77
2022/06/07 05:42:11;;;;;;;2.30;1.35;;;25.80;68.00;;;;;;6243855;23;19996;-77
2022/06/07 05:44:37;;;;;;;2.88;1.80;;;25.80;67.90;;;;;;6246004;23;20450;-77
2022/06/07 05:47:05;;;;;;;2.35;1.45;;;25.80;67.80;;;;;;6243859;23;20083;-76
2022/06/07 05:49:30;;;;;;;2.10;1.63;;;25.90;67.80;;;;;;6243665;23;20004;-76
2022/06/07 05:51:57;;;;;;;2.80;1.50;;;25.90;67.50;;;;;;6242715;23;20055;-76
2022/06/07 05:54:23;;;;;;;3.63;1.73;;;25.90;67.20;;;;;;6241490;23;20001;-77
2022/06/07 05:56:49;;;;;;;3.78;2.35;;;25.90;67.00;;;;;;6244288;23;20311;-76
2022/06/07 05:59:15;;;;;;;1.95;1.60;;;25.90;65.70;;;;;;6242304;23;20057;-76
2022/06/07 06:01:41;;;;;;;2.45;1.88;;;25.90;66.30;;;;;;6245212;23;20093;-77
2022/06/07 06:04:08;;;;;;;3.03;2.00;;;25.90;66.10;;;;;;6246469;23;20011;-77
2022/06/07 06:06:35;;;;;;;4.82;2.60;;;25.90;66.00;;;;;;6246137;23;20346;-78
2022/06/07 06:11:46;;;;;;;4.00;1.92;;;25.80;66.10;;;;;;6246105;23;20096;-78
2022/06/07 06:14:12;;;;;;;4.90;2.20;;;25.80;66.30;;;;;;6246546;22;20035;-78
2022/06/07 06:16:38;;;;;;;3.58;2.00;;;25.80;66.10;;;;;;6246684;23;20330;-78
2022/06/07 06:19:04;;;;;;;2.60;1.83;;;25.80;66.00;;;;;;6246378;23;20023;-78
2022/06/07 06:21:37;;;;;;;5.05;1.63;;;25.90;65.40;;;;;;6246290;23;20000;-78
2022/06/07 06:24:04;;;;;;;4.68;2.25;;;25.90;65.50;;;;;;6246186;23;20022;-78
2022/06/07 06:26:30;;;;;;;7.38;2.22;;;26.00;65.20;;;;;;6219133;23;20008;-79
2022/06/07 06:28:57;;;;;;;3.33;1.60;;;25.90;65.20;;;;;;6245367;23;20011;-79
2022/06/07 06:31:23;;;;;;;1.88;1.50;;;25.80;65.40;;;;;;6245268;23;20463;-78
2022/06/07 06:34:01;;;;;;;3.20;1.65;;;25.80;66.10;;;;;;6245595;23;20370;-80
2022/06/07 06:36:30;;;;;;;3.72;2.30;;;25.80;67.10;;;;;;6218415;23;20510;-83
2022/06/07 06:38:56;;;;;;;3.00;1.58;;;25.80;67.60;;;;;;6246130;23;20004;-78
2022/06/07 06:41:27;;;;;;;4.70;2.40;;;25.80;67.60;;;;;;6246041;23;20004;-81
2022/06/07 06:43:54;;;;;;;3.22;1.60;;;25.80;68.50;;;;;;6245160;23;20009;-80
2022/06/07 06:46:26;;;;;;;5.47;2.28;;;25.80;68.00;;;;;;6237202;23;20004;-80
2022/06/07 06:48:53;;;;;;;2.90;1.70;;;25.80;69.20;;;;;;6244731;23;20054;-80
2022/06/07 06:51:21;;;;;;;2.50;1.80;;;25.70;68.40;;;;;;6243320;23;20370;-80
2022/06/07 06:53:47;;;;;;;2.17;1.75;;;25.80;68.30;;;;;;6245316;23;20008;-80
2022/06/07 06:56:16;;;;;;;3.72;1.60;;;25.80;69.10;;;;;;6244836;23;20011;-80
2022/06/07 06:58:42;;;;;;;5.70;1.88;;;25.90;68.70;;;;;;6245406;23;20003;-79
2022/06/07 07:01:11;;;;;;;3.95;2.92;;;25.90;68.50;;;;;;6244610;23;20003;-80
2022/06/07 07:03:39;;;;;;;3.42;2.30;;;25.80;68.40;;;;;;6244952;23;20011;-80
2022/06/07 07:06:07;;;;;;;6.95;2.00;;;25.80;68.80;;;;;;6244896;23;20027;-80
2022/06/07 07:08:35;;;;;;;4.55;2.20;;;25.80;68.90;;;;;;6245375;23;20035;-80
2022/06/07 07:11:21;;;;;;;5.30;2.05;;;25.80;68.50;;;;;;6218233;23;20004;-80
2022/06/07 07:13:48;;;;;;;2.97;1.30;;;25.70;67.80;;;;;;6243681;22;20344;-79
2022/06/07 07:16:18;;;;;;;2.40;1.33;;;25.80;68.10;;;;;;6243802;23;20004;-79
2022/06/07 07:18:44;;;;;;;4.28;1.75;;;25.80;67.80;;;;;;6245284;23;20453;-79
2022/06/07 07:21:17;;;;;;;7.40;2.70;;;25.80;67.80;;;;;;6245448;23;20003;-79
2022/06/07 07:23:42;;;;;;;6.05;2.58;;;25.50;67.60;;;;;;6245662;23;20442;-78
2022/06/07 07:26:16;;;;;;;4.85;1.90;;;25.40;67.90;;;;;;6218544;23;20012;-78
2022/06/07 07:28:42;;;;;;;4.53;2.30;;;25.30;68.70;;;;;;6245339;23;20054;-78
2022/06/07 07:31:13;;;;;;;3.63;1.50;;;25.10;69.40;;;;;;6217731;23;20422;-78
2022/06/07 07:33:39;;;;;;;2.53;1.70;;;25.20;69.50;;;;;;6245108;23;20007;-78
2022/06/07 07:36:05;;;;;;;7.25;2.33;;;25.20;69.60;;;;;;6244970;23;20004;-78
2022/06/07 07:38:32;;;;;;;2.53;1.23;;;25.10;68.40;;;;;;6245467;23;20003;-78
2022/06/07 07:40:58;;;;;;;6.85;1.95;;;25.10;68.60;;;;;;6245535;23;20334;-77
2022/06/07 07:43:23;;;;;;;5.82;2.10;;;24.80;68.10;;;;;;6244443;23;20055;-77
2022/06/07 07:45:53;;;;;;;5.82;1.60;;;24.50;68.70;;;;;;6244496;23;20427;-77
2022/06/07 07:48:20;;;;;;;3.50;1.20;;;24.30;69.60;;;;;;6237602;23;20004;-78
2022/06/07 07:50:46;;;;;;;3.28;1.42;;;24.40;70.20;;;;;;6243710;23;20034;-78
2022/06/07 07:53:12;;;;;;;3.50;1.27;;;24.50;69.30;;;;;;6245453;23;20007;-78
2022/06/07 07:55:50;;;;;;;2.97;1.50;;;24.60;68.70;;;;;;6245508;23;20087;-77
2022/06/07 07:58:17;;;;;;;5.13;1.67;;;24.30;69.00;;;;;;6217973;23;20004;-77
2022/06/07 08:00:47;;;;;;;2.10;1.08;;;24.20;69.80;;;;;;6244666;23;20386;-78
2022/06/07 08:03:14;;;;;;;2.92;1.33;;;24.20;69.90;;;;;;6245008;23;20066;-77
2022/06/07 08:05:40;;;;;;;4.70;1.50;;;24.30;69.90;;;;;;6244868;23;20458;-78
2022/06/07 08:08:06;;;;;;;5.93;2.13;;;24.20;70.10;;;;;;6218399;23;20335;-77
2022/06/07 08:10:32;;;;;;;1.67;1.27;;;24.10;70.20;;;;;;6245118;23;20024;-78
2022/06/07 08:12:59;;;;;;;2.65;1.30;;;24.10;71.20;;;;;;6244943;22;20016;-78
2022/06/07 08:15:26;;;;;;;2.50;1.23;;;24.10;71.20;;;;;;6244868;23;20062;-77
2022/06/07 08:17:52;;;;;;;2.50;1.17;;;24.30;71.10;;;;;;6245341;23;20000;-78
2022/06/07 08:20:21;;;;;;;8.50;1.45;;;24.40;70.50;;;;;;6244497;23;20000;-77
2022/06/07 08:22:48;;;;;;;4.20;1.85;;;24.50;69.90;;;;;;6245259;23;20020;-77
2022/06/07 08:25:13;;;;;;;3.45;1.48;;;24.70;69.40;;;;;;6245072;23;19992;-77
2022/06/07 08:27:39;;;;;;;1.23;0.95;;;24.70;69.10;;;;;;6245026;23;20058;-78
2022/06/07 08:30:06;;;;;;;2.30;1.27;;;24.80;69.30;;;;;;6245430;23;20057;-77
2022/06/07 08:32:33;;;;;;;3.65;1.15;;;24.90;68.70;;;;;;6245705;23;20000;-77
2022/06/07 08:37:43;;;;;;;1.00;0.70;;;25.10;69.10;;;;;;6245188;23;20019;-78
2022/06/07 08:40:18;;;;;;;2.47;1.00;;;25.10;68.20;;;;;;6244452;23;20000;-78
2022/06/07 08:43:12;;;;;;;2.25;1.25;;;25.10;68.00;;;;;;6244251;23;20599;-78
2022/06/07 08:45:40;;;;;;;1.70;0.90;;;25.10;67.90;;;;;;6243761;23;20004;-78
2022/06/07 08:48:18;;;;;;;3.13;1.10;;;25.10;68.30;;;;;;6245057;23;20008;-78
2022/06/07 08:50:52;;;;;;;2.17;1.20;;;25.20;68.20;;;;;;6244273;23;20031;-76
2022/06/07 08:53:17;;;;;;;2.60;0.70;;;25.20;68.30;;;;;;6244762;23;20012;-82
2022/06/07 08:55:51;;;;;;;1.75;1.00;;;25.20;68.30;;;;;;6243591;23;20000;-82
2022/06/07 08:58:26;;;;;;;4.05;1.73;;;25.20;68.30;;;;;;6245233;23;20078;-82
2022/06/07 09:01:09;;;;;;;2.30;1.08;;;25.20;68.20;;;;;;6245137;23;20000;-82
2022/06/07 09:03:52;;;;;;;3.63;1.80;;;25.20;68.00;;;;;;6244892;23;19997;-82
2022/06/07 09:06:29;;;;;;;3.78;1.95;;;25.00;68.20;;;;;;6245142;23;20004;-82
2022/06/07 09:08:59;;;;;;;1.63;1.20;;;24.90;68.60;;;;;;6244794;23;20043;-82
2022/06/07 09:14:50;;;;;;;2.80;1.67;;;24.80;69.20;;;;;;6243342;23;20050;-80
2022/06/07 09:17:18;;;;;;;2.97;1.15;;;24.80;69.10;;;;;;6226639;23;20012;-81
2022/06/07 09:19:46;;;;;;;6.80;1.60;;;25.00;69.10;;;;;;6242299;23;20365;-77
2022/06/07 09:22:36;;;;;;;2.85;1.27;;;25.10;68.80;;;;;;6243539;23;20000;-77
2022/06/07 09:25:13;;;;;;;1.73;1.30;;;25.10;68.70;;;;;;6246590;23;20007;-76
2022/06/07 09:27:39;;;;;;;2.60;1.13;;;24.90;69.00;;;;;;6246816;23;20007;-78
2022/06/07 09:30:19;;;;;;;3.83;1.92;;;24.80;69.60;;;;;;6220062;23;20004;-80
2022/06/07 09:32:49;;;;;;;1.80;1.05;;;24.70;69.90;;;;;;6246784;23;20011;-79
2022/06/07 09:35:20;;;;;;;2.20;1.55;;;24.50;71.00;;;;;;6246739;23;20427;-80
2022/06/07 09:38:00;;;;;;;3.85;1.80;;;24.60;71.10;;;;;;6220653;23;20004;-80
2022/06/07 09:40:30;;;;;;;;;;;24.70;70.50;;;;;;6247571;23;20003;-80
2022/06/07 09:43:18;;;;;;;1.60;1.13;;;24.80;70.70;;;;;;6247088;23;19904;-80
2022/06/07 09:45:46;;;;;;;4.22;1.55;;;24.90;70.60;;;;;;6246648;23;20254;-76
2022/06/07 09:48:27;;;;;;;1.65;0.90;;;24.90;70.60;;;;;;6246375;23;20093;-76
2022/06/07 09:51:14;;;;;;;4.05;1.80;;;24.90;70.50;;;;;;6246042;23;20007;-75
2022/06/07 09:53:43;;;;;;;3.53;1.60;;;24.90;70.20;;;;;;6245718;23;20071;-76
2022/06/07 09:56:29;;;;;;;7.93;2.17;;;24.80;70.40;;;;;;6242972;23;20004;-77
2022/06/07 09:59:06;;;;;;;6.07;1.45;;;24.70;72.80;;;;;;6216314;23;20227;-79
2022/06/07 10:01:55;;;;;;;4.55;1.73;;;24.70;73.60;;;;;;6243413;23;20000;-77
2022/06/07 10:07:59;;;;;;;12.50;3.08;;;24.60;77.00;;;;;;6292142;22;20031;-94
2022/06/07 10:17:36;;;;;;;5.07;2.17;;;24.20;80.20;;;;;;6243789;22;20020;-94
2022/06/07 10:20:22;;;;;;;6.45;1.95;;;23.90;81.10;;;;;;6290421;22;20011;-96
2022/06/07 10:23:16;;;;;;;5.38;2.90;;;24.00;80.90;;;;;;6262889;22;20003;-96
2022/06/07 10:26:03;;;;;;;2.65;1.48;;;24.00;81.50;;;;;;6263771;22;19999;-95
2022/06/07 10:28:35;;;;;;;4.80;2.05;;;24.20;80.50;;;;;;6262726;22;20063;-96
2022/06/07 10:31:16;;;;;;;9.65;3.08;;;24.30;81.20;;;;;;6258995;22;20014;-94
2022/06/07 10:34:03;;;;;;;3.72;2.03;;;24.10;79.50;;;;;;6266498;22;19998;-93
2022/06/07 10:36:37;;;;;;;4.50;2.20;;;23.90;81.90;;;;;;6261257;22;20094;-95
2022/06/07 10:39:20;;;;;;;3.88;2.10;;;23.80;83.10;;;;;;6259386;22;20075;-95
2022/06/07 10:42:15;;;;;;;9.05;2.55;;;23.80;83.60;;;;;;6234386;22;20461;-76
2022/06/07 10:44:45;;;;;;;3.35;1.90;;;23.80;83.60;;;;;;6184689;23;20054;-76
2022/06/07 10:47:29;;;;;;;5.80;2.42;;;23.80;83.80;;;;;;6245819;23;20000;-76
2022/06/07 10:49:58;;;;;;;2.65;1.58;;;23.70;83.80;;;;;;6245912;23;20406;-78
2022/06/07 10:52:38;;;;;;;3.50;1.38;;;23.80;83.00;;;;;;6245961;23;20076;-78
2022/06/07 10:55:17;;;;;;;4.78;2.17;;;23.80;84.00;;;;;;6246052;23;20046;-77
2022/06/07 10:58:15;;;;;;;4.95;2.33;;;23.80;83.30;;;;;;6245839;23;20000;-78
2022/06/07 11:00:48;;;;;;;6.13;2.40;;;23.80;83.70;;;;;;6245910;23;20019;-78
2022/06/07 11:03:26;;;;;;;5.13;2.60;;;23.90;83.30;;;;;;6219246;23;20307;-77
2022/06/07 11:11:35;;;;;;;6.22;3.10;;;24.20;83.20;;;;;;6246243;23;20018;-79
2022/06/07 11:14:40;;;;;;;3.90;2.85;;;24.30;82.20;;;;;;6246111;23;20024;-79
2022/06/07 11:17:08;;;;;;;3.42;2.40;;;24.60;81.50;;;;;;6218597;23;20004;-77
2022/06/07 11:19:34;;;;;;;5.68;2.38;;;24.70;80.80;;;;;;6246023;23;20035;-77
2022/06/07 11:22:10;;;;;;;3.67;2.90;;;25.00;81.10;;;;;;6245821;23;20000;-78
2022/06/07 11:24:54;;;;;;;4.57;3.03;;;25.10;79.00;;;;;;6245891;23;20007;-77
2022/06/07 11:27:22;;;;;;;5.68;2.60;;;25.20;78.50;;;;;;6245515;23;20118;-77
2022/06/07 11:30:08;;;;;;;8.80;2.70;;;25.40;77.20;;;;;;6245310;23;20010;-76
2022/06/07 11:32:59;;;;;;;4.22;2.53;;;25.60;75.50;;;;;;6245104;23;20504;-78
2022/06/07 11:35:52;;;;;;;3.22;2.20;;;26.10;73.60;;;;;;6244966;23;20012;-77
2022/06/07 11:38:17;;;;;;;3.30;1.20;;;26.90;71.30;;;;;;6245723;23;20325;-80
2022/06/07 11:40:45;;;;;;;3.72;1.70;;;27.50;71.80;;;;;;6250430;22;20031;-76
2022/06/07 11:43:48;;;;;;;4.38;1.33;;;27.90;68.30;;;;;;6276384;22;20004;-77
2022/06/07 11:46:49;;;;;;;1.67;1.13;;;28.20;66.40;;;;;;6275776;22;20003;-79
2022/06/07 11:49:19;;;;;;;4.28;1.55;;;28.70;66.20;;;;;;6248742;22;20085;-78
2022/06/07 11:52:11;;;;;;;3.47;1.48;;;28.50;62.50;;;;;;6275809;22;20000;-78
2022/06/07 11:54:46;;;;;;;3.47;1.40;;;28.20;61.50;;;;;;6245740;22;20507;-78
2022/06/07 11:57:31;;;;;;;1.80;1.50;;;28.30;63.50;;;;;;6270301;22;20449;-78
2022/06/07 12:00:19;;;;;;;3.85;1.42;;;28.90;66.00;;;;;;6273014;22;20304;-81
2022/06/07 12:02:57;;;;;;;1.73;1.15;;;29.20;58.40;;;;;;6272850;22;20003;-79
2022/06/07 12:05:35;;;;;;;2.15;0.85;;;29.50;57.60;;;;;;6245324;22;20336;-79
2022/06/07 12:08:19;;;;;;;2.08;1.33;;;29.80;59.80;;;;;;6272675;22;20054;-79
2022/06/07 12:10:59;;;;;;;2.88;1.20;;;30.20;60.30;;;;;;6273542;22;20023;-77
2022/06/07 12:13:54;;;;;;;1.77;1.17;;;30.30;59.10;;;;;;6272932;22;20004;-78
2022/06/07 12:16:22;;;;;;;2.40;1.10;;;30.40;60.50;;;;;;6273471;22;20429;-79
2022/06/07 12:18:53;;;;;;;2.03;1.10;;;29.50;53.50;;;;;;6247837;22;20026;-78
2022/06/07 12:21:21;;;;;;;1.38;0.70;;;29.20;56.10;;;;;;6275428;22;20004;-80
2022/06/07 12:23:50;;;;;;;2.22;1.02;;;29.40;57.00;;;;;;6274949;22;20372;-80
2022/06/07 12:26:31;;;;;;;3.33;1.25;;;29.70;56.90;;;;;;6272344;22;20410;-79
2022/06/07 12:29:17;;;;;;;1.75;1.00;;;29.80;54.30;;;;;;6274616;22;20325;-79
2022/06/07 12:31:46;;;;;;;0.82;0.75;;;30.10;54.40;;;;;;6275640;22;20423;-80
2022/06/07 12:34:25;;;;;;;2.67;1.02;;;30.60;56.30;;;;;;6248252;22;20011;-80
2022/06/07 12:37:03;;;;;;;2.15;1.13;;;30.40;53.30;;;;;;6274820;22;20007;-80
2022/06/07 12:39:31;;;;;;;2.33;0.55;;;30.70;52.90;;;;;;6276251;22;19996;-80
2022/06/07 12:42:03;;;;;;;0.80;0.68;;;31.20;53.40;;;;;;6275700;22;20034;-79
2022/06/07 12:44:35;;;;;;;1.42;0.68;;;31.60;51.10;;;;;;6276334;22;19999;-80
2022/06/07 12:47:02;;;;;;;1.27;0.80;;;32.10;51.60;;;;;;6278236;22;20000;-80
2022/06/07 12:49:40;;;;;;;1.20;0.65;;;32.60;52.00;;;;;;6250278;22;20490;-81
2022/06/07 12:52:08;;;;;;;4.88;0.80;;;32.80;50.90;;;;;;6276031;22;20326;-79
2022/06/07 12:54:34;;;;;;;4.28;0.82;;;33.10;48.80;;;;;;6276499;22;20004;-80
2022/06/07 12:57:04;;;;;;;0.93;0.70;;;33.10;49.40;;;;;;6278213;22;20476;-80
2022/06/07 12:59:42;;;;;;;;;;;33.30;50.00;;;;;;6251573;22;19999;-80
2022/06/07 13:02:26;;;;;;;1.17;0.70;;;33.30;47.90;;;;;;6251416;22;19899;-80
2022/06/07 13:04:55;;;;;;;1.05;0.70;;;33.50;49.00;;;;;;6277981;22;20003;-79
2022/06/07 13:07:30;;;;;;;1.17;0.95;;;33.60;49.00;;;;;;6251333;22;20011;-79
2022/06/07 13:10:05;;;;;;;1.58;0.95;;;33.30;45.40;;;;;;6251340;22;20095;-80
2022/06/07 13:12:36;;;;;;;2.92;1.10;;;32.70;45.60;;;;;;6278337;22;20004;-80
2022/06/07 13:15:14;;;;;;;2.08;0.80;;;31.80;47.10;;;;;;6251070;22;20008;-80
2022/06/07 13:17:51;;;;;;;1.08;0.80;;;31.80;48.70;;;;;;6278020;22;20004;-81
2022/06/07 13:20:36;;;;;;;0.85;0.70;;;31.80;49.20;;;;;;6277936;22;19999;-80
2022/06/07 13:23:32;;;;;;;1.17;0.60;;;31.80;49.70;;;;;;6278206;22;19996;-80
2022/06/07 13:26:18;;;;;;;1.60;0.60;;;31.80;48.80;;;;;;6278153;22;20050;-80
2022/06/07 13:28:45;;;;;;;0.63;0.60;;;31.70;49.70;;;;;;6225078;22;20008;-80
2022/06/07 13:31:43;;;;;;;1.58;0.88;;;31.60;49.30;;;;;;6250748;22;20011;-80
2022/06/07 13:34:23;;;;;;;1.38;0.80;;;31.60;46.70;;;;;;6250756;22;20441;-80
2022/06/07 13:37:08;;;;;;;2.40;1.10;;;31.40;48.40;;;;;;6278149;22;20003;-79
2022/06/07 13:39:41;;;;;;;2.35;1.00;;;31.40;47.90;;;;;;6278103;22;20003;-80
2022/06/07 13:42:43;;;;;;;2.60;1.10;;;31.40;47.80;;;;;;6250727;22;20423;-80
2022/06/07 13:45:12;;;;;;;0.80;0.75;;;31.10;47.30;;;;;;6100980;23;20444;-80
2022/06/07 13:47:41;;;;;;;1.77;1.58;;;30.90;47.80;;;;;;6250783;22;20003;-80
2022/06/07 13:56:14;;;;;;;1.25;0.80;;;30.00;50.30;;;;;;6277892;22;20468;-81
2022/06/07 13:58:42;;;;;;;1.15;0.90;;;30.20;49.80;;;;;;6250732;22;20003;-80
2022/06/07 14:01:31;;;;;;;2.35;1.00;;;30.20;50.40;;;;;;6277823;22;20425;-80
2022/06/07 14:04:11;;;;;;;2.75;1.20;;;30.20;50.00;;;;;;6250165;22;20054;-80
2022/06/07 14:06:40;;;;;;;;;;;30.10;50.60;;;;;;6278338;22;20333;-80
2022/06/07 14:09:21;;;;;;;1.55;0.82;;;30.20;50.60;;;;;;6278016;22;19900;-80
2022/06/07 14:11:51;;;;;;;1.48;0.82;;;29.80;49.40;;;;;;6277778;22;20413;-80
2022/06/07 14:14:18;;;;;;;1.90;1.00;;;29.80;50.40;;;;;;6277790;22;20406;-80
2022/06/07 14:16:50;;;;;;;1.20;0.60;;;29.80;50.60;;;;;;6275934;22;20095;-80
2022/06/07 14:19:44;;;;;;;1.30;0.90;;;29.80;50.70;;;;;;6274636;22;19996;-79
2022/06/07 14:22:19;;;;;;;1.58;0.80;;;29.80;51.50;;;;;;6272428;22;20003;-79
2022/06/07 14:24:46;;;;;;;0.73;0.70;;;29.70;51.20;;;;;;6276294;22;20034;-79